createdAt,value
2018-11-27T00:00:36.380Z,100
2018-11-27T00:01:38.403Z,100
2018-11-27T00:02:40.424Z,100
2018-11-27T00:03:42.746Z,100
2018-11-27T00:04:44.777Z,100
2018-11-27T00:05:46.803Z,100
2018-11-27T00:06:48.827Z,100
2018-11-27T00:07:50.845Z,100
2018-11-27T00:08:52.873Z,100
2018-11-27T00:09:54.910Z,100
2018-11-27T00:10:56.923Z,100
2018-11-27T00:11:58.955Z,100
2018-11-27T00:13:00.984Z,100
2018-11-27T00:14:03.294Z,100
2018-11-27T00:15:05.324Z,100
2018-11-27T00:16:07.351Z,100
2018-11-27T00:17:09.767Z,100
2018-11-27T00:18:11.789Z,100
2018-11-27T00:19:13.847Z,100
2018-11-27T00:20:15.854Z,100
2018-11-27T00:21:18.261Z,100
2018-11-27T00:22:20.582Z,100
2018-11-27T00:23:22.598Z,100
2018-11-27T00:24:24.909Z,100
2018-11-27T00:25:26.947Z,100
2018-11-27T00:26:28.977Z,100
2018-11-27T00:27:30.994Z,100
2018-11-27T00:28:33.031Z,100
2018-11-27T00:29:35.056Z,100
2018-11-27T00:30:37.361Z,100
2018-11-27T00:31:39.436Z,100
2018-11-27T00:32:41.745Z,100
2018-11-27T00:33:44.046Z,100
2018-11-27T00:34:46.083Z,100
2018-11-27T00:35:48.159Z,100
2018-11-27T00:36:50.165Z,100
2018-11-27T00:37:52.204Z,100
2018-11-27T00:38:54.223Z,100
2018-11-27T00:39:56.247Z,100
2018-11-27T00:40:58.283Z,100
2018-11-27T00:42:00.305Z,100
2018-11-27T00:43:02.323Z,100
2018-11-27T00:44:04.360Z,100
2018-11-27T00:45:06.383Z,100
2018-11-27T00:46:08.403Z,100
2018-11-27T00:47:10.432Z,100
2018-11-27T00:48:12.444Z,100
2018-11-27T00:49:14.473Z,100
2018-11-27T00:50:16.500Z,100
2018-11-27T00:51:18.525Z,100
2018-11-27T00:52:20.537Z,100
2018-11-27T00:53:22.568Z,100
2018-11-27T00:54:24.591Z,100
2018-11-27T00:55:26.620Z,100
2018-11-27T00:56:28.656Z,100
2018-11-27T00:57:30.675Z,100
2018-11-27T00:58:32.701Z,100
2018-11-27T00:59:34.727Z,100
2018-11-27T01:00:37.168Z,100
2018-11-27T01:01:39.570Z,100
2018-11-27T01:02:41.888Z,100
2018-11-27T01:03:43.920Z,100
2018-11-27T01:04:45.936Z,100
2018-11-27T01:05:48.631Z,100
2018-11-27T01:06:50.663Z,100
2018-11-27T01:07:52.975Z,100
2018-11-27T01:08:55.591Z,100
2018-11-27T01:09:57.608Z,100
2018-11-27T01:10:59.639Z,100
2018-11-27T01:12:01.660Z,100
2018-11-27T01:13:03.693Z,100
2018-11-27T01:14:05.725Z,100
2018-11-27T01:15:07.750Z,100
2018-11-27T01:16:09.772Z,100
2018-11-27T01:17:12.107Z,100
2018-11-27T01:18:14.127Z,100
2018-11-27T01:19:16.148Z,100
2018-11-27T01:20:18.179Z,100
2018-11-27T01:21:20.204Z,100
2018-11-27T01:22:22.228Z,100
2018-11-27T01:23:24.254Z,100
2018-11-27T01:24:26.287Z,100
2018-11-27T01:25:28.296Z,100
2018-11-27T01:26:30.330Z,100
2018-11-27T01:27:32.350Z,100
2018-11-27T01:28:34.670Z,100
2018-11-27T01:29:37.095Z,100
2018-11-27T01:30:39.111Z,100
2018-11-27T01:31:41.145Z,100
2018-11-27T01:32:43.169Z,100
2018-11-27T01:33:45.508Z,100
2018-11-27T01:34:47.522Z,100
2018-11-27T01:35:49.551Z,100
2018-11-27T01:36:51.577Z,100
2018-11-27T01:37:53.603Z,100
2018-11-27T01:38:55.640Z,100
2018-11-27T01:39:57.949Z,100
2018-11-27T01:40:59.965Z,100
2018-11-27T01:42:01.989Z,100
2018-11-27T01:43:04.034Z,100
2018-11-27T01:44:06.056Z,100
2018-11-27T01:45:08.089Z,100
2018-11-27T01:46:10.117Z,100
2018-11-27T01:47:12.131Z,100
2018-11-27T01:48:14.165Z,100
2018-11-27T01:49:16.204Z,100
2018-11-27T01:50:18.211Z,100
2018-11-27T01:51:20.241Z,100
2018-11-27T01:52:22.300Z,100
2018-11-27T01:53:24.606Z,100
2018-11-27T01:54:27.212Z,100
2018-11-27T01:55:29.232Z,100
2018-11-27T01:56:31.243Z,100
2018-11-27T01:57:33.290Z,100
2018-11-27T01:58:35.730Z,100
2018-11-27T01:59:37.747Z,100
2018-11-27T02:00:39.783Z,100
2018-11-27T02:01:41.816Z,100
2018-11-27T02:02:43.835Z,100
2018-11-27T02:03:45.867Z,100
2018-11-27T02:04:47.885Z,100
2018-11-27T02:05:49.910Z,100
2018-11-27T02:06:51.923Z,100
2018-11-27T02:07:53.974Z,100
2018-11-27T02:08:56.278Z,100
2018-11-27T02:09:58.298Z,100
2018-11-27T02:11:00.328Z,100
2018-11-27T02:12:02.359Z,100
2018-11-27T02:13:04.669Z,100
2018-11-27T02:14:06.705Z,100
2018-11-27T02:15:08.730Z,100
2018-11-27T02:16:10.751Z,100
2018-11-27T02:17:12.780Z,100
2018-11-27T02:18:14.802Z,100
2018-11-27T02:19:16.826Z,100
2018-11-27T02:20:18.863Z,100
2018-11-27T02:21:20.882Z,100
2018-11-27T02:22:23.574Z,100
2018-11-27T02:23:25.882Z,100
2018-11-27T02:24:27.905Z,100
2018-11-27T02:25:29.935Z,100
2018-11-27T02:26:31.959Z,100
2018-11-27T02:27:33.996Z,100
2018-11-27T02:28:36.017Z,100
2018-11-27T02:29:38.329Z,100
2018-11-27T02:30:40.736Z,100
2018-11-27T02:31:43.077Z,100
2018-11-27T02:32:45.094Z,100
2018-11-27T02:33:47.412Z,100
2018-11-27T02:34:49.736Z,100
2018-11-27T02:35:52.036Z,100
2018-11-27T02:36:54.351Z,100
2018-11-27T02:37:57.324Z,100
2018-11-27T02:38:59.370Z,100
2018-11-27T02:40:02.079Z,100
2018-11-27T02:41:04.501Z,100
2018-11-27T02:42:06.517Z,100
2018-11-27T02:43:08.585Z,100
2018-11-27T02:44:10.906Z,100
2018-11-27T02:45:13.015Z,100
2018-11-27T02:46:15.043Z,100
2018-11-27T02:47:17.095Z,100
2018-11-27T02:48:19.419Z,100
2018-11-27T02:49:21.432Z,100
2018-11-27T02:50:23.471Z,100
2018-11-27T02:51:25.893Z,100
2018-11-27T02:52:27.928Z,100
2018-11-27T02:53:29.973Z,100
2018-11-27T02:54:32.012Z,100
2018-11-27T02:55:34.326Z,100
2018-11-27T02:56:36.659Z,100
2018-11-27T02:57:38.959Z,100
2018-11-27T02:58:40.984Z,100
2018-11-27T02:59:43.008Z,100
2018-11-27T03:00:45.045Z,100
2018-11-27T03:01:47.089Z,100
2018-11-27T03:02:49.125Z,100
2018-11-27T03:03:51.461Z,100
2018-11-27T03:04:53.503Z,100
2018-11-27T03:05:55.521Z,100
2018-11-27T03:06:57.935Z,100
2018-11-27T03:08:00.368Z,100
2018-11-27T03:09:03.160Z,100
2018-11-27T03:10:05.200Z,100
2018-11-27T03:11:07.225Z,100
2018-11-27T03:12:09.551Z,100
2018-11-27T03:13:11.953Z,100
2018-11-27T03:14:14.002Z,100
2018-11-27T03:15:16.306Z,100
2018-11-27T03:16:18.340Z,100
2018-11-27T03:17:20.414Z,100
2018-11-27T03:18:22.729Z,100
2018-11-27T03:19:24.763Z,100
2018-11-27T03:20:27.082Z,100
2018-11-27T03:21:29.121Z,100
2018-11-27T03:22:31.436Z,100
2018-11-27T03:23:33.756Z,100
2018-11-27T03:24:35.778Z,100
2018-11-27T03:25:38.098Z,100
2018-11-27T03:26:40.133Z,100
2018-11-27T03:27:42.157Z,100
2018-11-27T03:28:44.197Z,100
2018-11-27T03:29:46.248Z,100
2018-11-27T03:30:48.855Z,100
2018-11-27T03:31:51.520Z,100
2018-11-27T03:32:55.002Z,100
2018-11-27T03:33:57.688Z,100
2018-11-27T03:35:00.296Z,100
2018-11-27T03:36:02.327Z,100
2018-11-27T03:37:04.762Z,100
2018-11-27T03:38:06.794Z,100
2018-11-27T03:39:08.805Z,100
2018-11-27T03:40:10.835Z,100
2018-11-27T03:41:12.878Z,100
2018-11-27T03:42:14.918Z,100
2018-11-27T03:43:16.958Z,100
2018-11-27T03:44:19.002Z,100
2018-11-27T03:45:21.034Z,100
2018-11-27T03:46:23.052Z,100
2018-11-27T03:47:25.765Z,100
2018-11-27T03:48:27.788Z,100
2018-11-27T03:49:29.829Z,100
2018-11-27T03:50:31.879Z,100
2018-11-27T03:51:33.918Z,100
2018-11-27T03:52:35.954Z,100
2018-11-27T03:53:37.989Z,100
2018-11-27T03:54:40.024Z,100
2018-11-27T03:55:42.040Z,100
2018-11-27T03:56:44.073Z,100
2018-11-27T03:57:46.104Z,100
2018-11-27T03:58:48.412Z,100
2018-11-27T03:59:50.463Z,100
2018-11-27T04:00:52.502Z,100
2018-11-27T04:01:54.521Z,100
2018-11-27T04:02:56.619Z,100
2018-11-27T04:03:58.644Z,100
2018-11-27T04:05:01.127Z,100
2018-11-27T04:06:03.466Z,100
2018-11-27T04:07:05.501Z,100
2018-11-27T04:08:07.529Z,100
2018-11-27T04:09:09.565Z,100
2018-11-27T04:10:11.615Z,100
2018-11-27T04:11:13.911Z,100
2018-11-27T04:12:15.960Z,100
2018-11-27T04:13:18.282Z,100
2018-11-27T04:14:20.602Z,100
2018-11-27T04:15:23.218Z,100
2018-11-27T04:16:25.278Z,100
2018-11-27T04:17:27.322Z,100
2018-11-27T04:18:29.372Z,100
2018-11-27T04:19:31.434Z,100
2018-11-27T04:20:33.855Z,100
2018-11-27T04:21:35.953Z,100
2018-11-27T04:22:38.012Z,100
2018-11-27T04:23:40.810Z,100
2018-11-27T04:24:42.865Z,100
2018-11-27T04:25:44.904Z,100
2018-11-27T04:26:46.927Z,100
2018-11-27T04:27:49.370Z,100
2018-11-27T04:28:52.153Z,100
2018-11-27T04:29:54.184Z,100
2018-11-27T04:30:56.906Z,100
2018-11-27T04:31:58.935Z,100
2018-11-27T04:33:00.974Z,100
2018-11-27T04:34:03.294Z,100
2018-11-27T04:35:05.333Z,100
2018-11-27T04:36:07.357Z,100
2018-11-27T04:37:09.779Z,100
2018-11-27T04:38:11.810Z,100
2018-11-27T04:39:13.839Z,100
2018-11-27T04:40:16.173Z,100
2018-11-27T04:41:18.211Z,100
2018-11-27T04:42:20.246Z,100
2018-11-27T04:43:22.283Z,100
2018-11-27T04:44:24.341Z,100
2018-11-27T04:45:26.814Z,100
2018-11-27T04:46:29.363Z,100
2018-11-27T04:47:31.404Z,100
2018-11-27T04:48:34.031Z,100
2018-11-27T04:49:36.072Z,100
2018-11-27T04:50:38.388Z,100
2018-11-27T04:51:40.808Z,100
2018-11-27T04:52:42.826Z,100
2018-11-27T04:53:45.167Z,100
2018-11-27T04:54:47.205Z,100
2018-11-27T04:55:49.232Z,100
2018-11-27T04:56:51.265Z,100
2018-11-27T04:57:53.713Z,100
2018-11-27T04:58:56.029Z,100
2018-11-27T04:59:58.051Z,100
2018-11-27T05:01:00.078Z,100
2018-11-27T05:02:02.122Z,100
2018-11-27T05:03:04.424Z,100
2018-11-27T05:04:06.466Z,100
2018-11-27T05:05:08.505Z,100
2018-11-27T05:06:10.531Z,100
2018-11-27T05:07:12.566Z,100
2018-11-27T05:08:15.278Z,100
2018-11-27T05:09:17.703Z,100
2018-11-27T05:10:20.444Z,100
2018-11-27T05:11:22.756Z,100
2018-11-27T05:12:24.774Z,100
2018-11-27T05:13:26.817Z,100
2018-11-27T05:14:28.840Z,100
2018-11-27T05:15:30.866Z,100
2018-11-27T05:16:32.886Z,100
2018-11-27T05:17:34.929Z,100
2018-11-27T05:18:36.938Z,100
2018-11-27T05:19:38.966Z,100
2018-11-27T05:20:41.064Z,100
2018-11-27T05:21:43.080Z,100
2018-11-27T05:22:45.111Z,100
2018-11-27T05:23:47.413Z,100
2018-11-27T05:24:49.439Z,100
2018-11-27T05:25:51.462Z,100
2018-11-27T05:26:53.821Z,100
2018-11-27T05:27:55.842Z,100
2018-11-27T05:28:57.861Z,100
2018-11-27T05:29:59.898Z,100
2018-11-27T05:31:01.928Z,100
2018-11-27T05:32:03.955Z,100
2018-11-27T05:33:05.975Z,100
2018-11-27T05:34:08.386Z,100
2018-11-27T05:35:10.430Z,100
2018-11-27T05:36:12.840Z,100
2018-11-27T05:37:15.253Z,100
2018-11-27T05:38:17.582Z,100
2018-11-27T05:39:19.653Z,100
2018-11-27T05:40:21.683Z,100
2018-11-27T05:41:24.002Z,100
2018-11-27T05:42:26.019Z,100
2018-11-27T05:43:28.041Z,100
2018-11-27T05:44:30.076Z,100
2018-11-27T05:45:32.096Z,100
2018-11-27T05:46:34.522Z,100
2018-11-27T05:47:36.832Z,100
2018-11-27T05:48:38.867Z,100
2018-11-27T05:49:40.887Z,100
2018-11-27T05:50:42.928Z,100
2018-11-27T05:51:44.938Z,100
2018-11-27T05:52:47.350Z,100
2018-11-27T05:53:49.765Z,100
2018-11-27T05:54:51.784Z,100
2018-11-27T05:55:53.822Z,100
2018-11-27T05:56:55.843Z,100
2018-11-27T05:57:57.882Z,100
2018-11-27T05:59:00.178Z,100
2018-11-27T06:00:02.223Z,100
2018-11-27T06:01:04.243Z,100
2018-11-27T06:02:06.287Z,100
2018-11-27T06:03:08.327Z,100
2018-11-27T06:04:10.351Z,100
2018-11-27T06:05:12.377Z,100
2018-11-27T06:06:14.410Z,100
2018-11-27T06:07:16.437Z,100
2018-11-27T06:08:18.451Z,100
2018-11-27T06:09:20.483Z,100
2018-11-27T06:10:22.507Z,100
2018-11-27T06:11:24.536Z,100
2018-11-27T06:12:26.557Z,100
2018-11-27T06:13:28.586Z,100
2018-11-27T06:14:30.612Z,100
2018-11-27T06:15:33.547Z,100
2018-11-27T06:16:35.574Z,100
2018-11-27T06:17:37.602Z,100
2018-11-27T06:18:39.623Z,100
2018-11-27T06:19:41.661Z,100
2018-11-27T06:20:44.069Z,100
2018-11-27T06:21:46.093Z,100
2018-11-27T06:22:48.116Z,100
2018-11-27T06:23:50.160Z,100
2018-11-27T06:24:52.175Z,100
2018-11-27T06:25:54.201Z,100
2018-11-27T06:26:56.227Z,100
2018-11-27T06:27:58.241Z,100
2018-11-27T06:29:00.281Z,100
2018-11-27T06:30:02.596Z,100
2018-11-27T06:31:04.628Z,100
2018-11-27T06:32:06.647Z,100
2018-11-27T06:33:08.685Z,100
2018-11-27T06:34:10.710Z,100
2018-11-27T06:35:12.741Z,100
2018-11-27T06:36:14.777Z,100
2018-11-27T06:37:16.805Z,100
2018-11-27T06:38:18.834Z,100
2018-11-27T06:39:21.149Z,100
2018-11-27T06:40:23.471Z,100
2018-11-27T06:41:25.484Z,100
2018-11-27T06:42:27.520Z,100
2018-11-27T06:43:29.543Z,100
2018-11-27T06:44:31.605Z,100
2018-11-27T06:45:33.640Z,100
2018-11-27T06:46:35.957Z,100
2018-11-27T06:47:37.984Z,100
2018-11-27T06:48:40.032Z,100
2018-11-27T06:49:42.055Z,100
2018-11-27T06:50:44.463Z,100
2018-11-27T06:51:46.486Z,100
2018-11-27T06:52:48.505Z,100
2018-11-27T06:53:50.531Z,100
2018-11-27T06:54:52.563Z,100
2018-11-27T06:55:54.589Z,100
2018-11-27T06:56:56.895Z,100
2018-11-27T06:57:59.313Z,100
2018-11-27T06:59:01.615Z,100
2018-11-27T07:00:03.912Z,100
2018-11-27T07:01:05.946Z,100
2018-11-27T07:02:07.964Z,100
2018-11-27T07:03:09.996Z,100
2018-11-27T07:04:12.033Z,100
2018-11-27T07:05:14.086Z,100
2018-11-27T07:06:16.101Z,100
2018-11-27T07:07:18.138Z,100
2018-11-27T07:08:20.172Z,100
2018-11-27T07:09:22.187Z,100
2018-11-27T07:10:24.220Z,100
2018-11-27T07:11:26.529Z,100
2018-11-27T07:12:28.844Z,100
2018-11-27T07:13:31.492Z,100
2018-11-27T07:14:34.809Z,100
2018-11-27T07:15:37.152Z,100
2018-11-27T07:16:39.184Z,100
2018-11-27T07:17:41.218Z,100
2018-11-27T07:18:43.520Z,100
2018-11-27T07:19:45.547Z,100
2018-11-27T07:20:47.579Z,100
2018-11-27T07:21:49.591Z,100
2018-11-27T07:22:51.902Z,100
2018-11-27T07:23:53.937Z,100
2018-11-27T07:24:55.964Z,100
2018-11-27T07:25:57.982Z,100
2018-11-27T07:27:00.402Z,100
2018-11-27T07:28:02.435Z,100
2018-11-27T07:29:04.468Z,100
2018-11-27T07:30:06.479Z,100
2018-11-27T07:31:08.516Z,100
2018-11-27T07:32:10.626Z,100
2018-11-27T07:33:12.686Z,100
2018-11-27T07:34:14.733Z,100
2018-11-27T07:35:16.775Z,100
2018-11-27T07:36:19.099Z,100
2018-11-27T07:37:21.427Z,100
2018-11-27T07:38:23.467Z,100
2018-11-27T07:39:25.480Z,100
2018-11-27T07:40:27.513Z,100
2018-11-27T07:41:29.533Z,100
2018-11-27T07:42:31.552Z,100
2018-11-27T07:43:33.586Z,100
2018-11-27T07:44:35.604Z,100
2018-11-27T07:45:37.637Z,100
2018-11-27T07:46:39.660Z,100
2018-11-27T07:47:41.700Z,100
2018-11-27T07:48:43.719Z,100
2018-11-27T07:49:46.031Z,100
2018-11-27T07:50:48.053Z,100
2018-11-27T07:51:50.074Z,100
2018-11-27T07:52:52.105Z,100
2018-11-27T07:53:54.138Z,100
2018-11-27T07:54:56.155Z,100
2018-11-27T07:55:58.468Z,100
2018-11-27T07:57:00.502Z,100
2018-11-27T07:58:02.907Z,100
2018-11-27T07:59:05.239Z,100
2018-11-27T08:00:07.272Z,100
2018-11-27T08:01:09.690Z,100
2018-11-27T08:02:11.711Z,100
2018-11-27T08:03:13.735Z,100
2018-11-27T08:04:15.772Z,100
2018-11-27T08:05:17.806Z,100
2018-11-27T08:06:19.867Z,100
2018-11-27T08:07:22.184Z,100
2018-11-27T08:08:24.210Z,100
2018-11-27T08:09:28.019Z,100
2018-11-27T08:10:30.058Z,100
2018-11-27T08:11:32.102Z,100
2018-11-27T08:12:34.121Z,100
2018-11-27T08:13:36.449Z,100
2018-11-27T08:14:38.478Z,100
2018-11-27T08:15:40.498Z,100
2018-11-27T08:16:42.541Z,100
2018-11-27T08:17:44.560Z,100
2018-11-27T08:18:46.587Z,100
2018-11-27T08:19:48.905Z,100
2018-11-27T08:20:50.946Z,100
2018-11-27T08:21:52.965Z,100
2018-11-27T08:22:55.384Z,100
2018-11-27T08:23:57.796Z,100
2018-11-27T08:25:00.196Z,100
2018-11-27T08:26:02.610Z,100
2018-11-27T08:27:04.651Z,100
2018-11-27T08:28:06.664Z,100
2018-11-27T08:29:08.696Z,100
2018-11-27T08:30:10.736Z,100
2018-11-27T08:31:12.775Z,100
2018-11-27T08:32:14.810Z,100
2018-11-27T08:33:16.831Z,100
2018-11-27T08:34:18.863Z,100
2018-11-27T08:35:21.161Z,100
2018-11-27T08:36:23.211Z,100
2018-11-27T08:37:25.235Z,100
2018-11-27T08:38:27.261Z,100
2018-11-27T08:39:29.598Z,100
2018-11-27T08:40:31.625Z,100
2018-11-27T08:41:41.406Z,100
2018-11-27T08:42:43.434Z,100
2018-11-27T08:43:45.462Z,100
2018-11-27T08:44:47.504Z,100
2018-11-27T08:45:49.802Z,100
2018-11-27T08:46:51.840Z,100
2018-11-27T08:47:53.869Z,100
2018-11-27T08:48:56.228Z,100
2018-11-27T08:49:58.263Z,100
2018-11-27T08:51:00.297Z,100
2018-11-27T08:52:02.327Z,100
2018-11-27T08:53:04.362Z,100
2018-11-27T08:54:06.403Z,100
2018-11-27T08:55:08.423Z,100
2018-11-27T08:56:10.483Z,100
2018-11-27T08:57:12.507Z,100
2018-11-27T08:58:14.525Z,100
2018-11-27T08:59:16.554Z,100
2018-11-27T09:00:18.583Z,100
2018-11-27T09:01:20.595Z,100
2018-11-27T09:02:22.624Z,100
2018-11-27T09:03:24.654Z,100
2018-11-27T09:04:26.675Z,100
2018-11-27T09:05:28.705Z,100
2018-11-27T09:06:30.722Z,100
2018-11-27T09:07:32.745Z,100
2018-11-27T09:08:34.763Z,100
2018-11-27T09:09:36.799Z,100
2018-11-27T09:10:38.813Z,100
2018-11-27T09:11:40.842Z,100
2018-11-27T09:12:42.879Z,100
2018-11-27T09:13:44.901Z,99
2018-11-27T09:14:47.601Z,98
2018-11-27T09:15:50.019Z,98
2018-11-27T09:16:52.056Z,97
2018-11-27T09:17:54.069Z,97
2018-11-27T09:18:56.113Z,97
2018-11-27T09:19:58.135Z,97
2018-11-27T09:21:00.716Z,96
2018-11-27T09:22:02.752Z,96
2018-11-27T09:23:04.787Z,97
2018-11-27T09:24:06.836Z,96
2018-11-27T09:25:08.908Z,96
2018-11-27T09:26:11.263Z,97
2018-11-27T09:27:13.280Z,96
2018-11-27T09:28:15.318Z,96
2018-11-27T09:29:17.354Z,95
2018-11-27T09:30:19.386Z,95
2018-11-27T09:31:22.104Z,95
2018-11-27T09:32:24.141Z,95
2018-11-27T09:33:26.457Z,95
2018-11-27T09:34:29.383Z,95
2018-11-27T09:35:31.418Z,95
2018-11-27T09:36:33.441Z,95
2018-11-27T09:37:35.479Z,95
2018-11-27T09:38:37.510Z,95
2018-11-27T09:39:39.538Z,94
2018-11-27T09:40:41.864Z,94
2018-11-27T09:41:44.175Z,94
2018-11-27T09:42:46.193Z,94
2018-11-27T09:43:48.523Z,94
2018-11-27T09:44:50.829Z,93
2018-11-27T09:45:52.867Z,93
2018-11-27T09:46:54.915Z,93
2018-11-27T09:47:57.328Z,93
2018-11-27T09:48:59.361Z,93
2018-11-27T09:50:01.382Z,93
2018-11-27T09:51:03.714Z,93
2018-11-27T09:52:05.735Z,92
2018-11-27T09:53:07.776Z,92
2018-11-27T09:54:09.808Z,91
2018-11-27T09:55:11.830Z,92
2018-11-27T09:56:14.153Z,92
2018-11-27T09:57:16.185Z,92
2018-11-27T09:58:18.218Z,91
2018-11-27T09:59:20.632Z,90
2018-11-27T10:00:22.649Z,90
2018-11-27T10:01:24.967Z,90
2018-11-27T10:02:26.990Z,90
2018-11-27T10:03:29.068Z,90
2018-11-27T10:04:31.102Z,89
2018-11-27T10:05:33.139Z,89
2018-11-27T10:06:35.162Z,89
2018-11-27T10:07:37.202Z,89
2018-11-27T10:08:39.515Z,88
2018-11-27T10:09:41.557Z,88
2018-11-27T10:10:43.597Z,87
2018-11-27T10:11:45.619Z,88
2018-11-27T10:12:47.651Z,88
2018-11-27T10:13:49.960Z,88
2018-11-27T10:14:51.995Z,89
2018-11-27T10:15:54.009Z,89
2018-11-27T10:16:56.055Z,89
2018-11-27T10:17:58.090Z,89
2018-11-27T10:19:00.122Z,89
2018-11-27T10:20:02.541Z,88
2018-11-27T10:21:04.564Z,89
2018-11-27T10:22:06.591Z,88
2018-11-27T10:23:09.002Z,88
2018-11-27T10:24:11.046Z,88
2018-11-27T10:25:13.061Z,88
2018-11-27T10:26:15.103Z,89
2018-11-27T10:27:17.138Z,89
2018-11-27T10:28:19.162Z,90
2018-11-27T10:29:21.504Z,89
2018-11-27T10:30:24.484Z,89
2018-11-27T10:31:27.027Z,89
2018-11-27T10:32:30.332Z,89
2018-11-27T10:33:32.850Z,89
2018-11-27T10:34:35.560Z,89
2018-11-27T10:35:37.582Z,89
2018-11-27T10:36:39.608Z,89
2018-11-27T10:37:41.647Z,89
2018-11-27T10:38:43.684Z,89
2018-11-27T10:39:45.712Z,88
2018-11-27T10:40:47.749Z,88
2018-11-27T10:41:49.772Z,88
2018-11-27T10:42:52.153Z,89
2018-11-27T10:43:54.340Z,90
2018-11-27T10:44:56.641Z,90
2018-11-27T10:45:58.674Z,90
2018-11-27T10:47:00.703Z,89
2018-11-27T10:48:02.743Z,88
2018-11-27T10:49:04.765Z,89
2018-11-27T10:50:06.807Z,89
2018-11-27T10:51:09.129Z,89
2018-11-27T10:52:11.156Z,88
2018-11-27T10:53:13.576Z,88
2018-11-27T10:54:15.595Z,87
2018-11-27T10:55:17.628Z,87
2018-11-27T10:56:19.668Z,87
2018-11-27T10:57:21.711Z,87
2018-11-27T10:58:23.741Z,86
2018-11-27T10:59:25.784Z,87
2018-11-27T11:00:27.838Z,86
2018-11-27T11:01:29.860Z,86
2018-11-27T11:02:32.177Z,86
2018-11-27T11:03:34.206Z,85
2018-11-27T11:04:36.230Z,85
2018-11-27T11:05:38.264Z,85
2018-11-27T11:06:40.309Z,85
2018-11-27T11:07:42.334Z,85
2018-11-27T11:08:44.361Z,85
2018-11-27T11:09:46.388Z,85
2018-11-27T11:10:48.412Z,85
2018-11-27T11:11:50.442Z,85
2018-11-27T11:12:52.471Z,86
2018-11-27T11:13:54.510Z,85
2018-11-27T11:14:56.544Z,85
2018-11-27T11:15:58.565Z,85
2018-11-27T11:17:00.599Z,85
2018-11-27T11:18:02.623Z,85
2018-11-27T11:19:04.652Z,85
2018-11-27T11:20:06.972Z,85
2018-11-27T11:21:09.301Z,84
2018-11-27T11:22:11.608Z,84
2018-11-27T11:23:13.648Z,84
2018-11-27T11:24:15.681Z,84
2018-11-27T11:25:17.996Z,84
2018-11-27T11:26:20.043Z,84
2018-11-27T11:27:22.067Z,84
2018-11-27T11:28:24.106Z,84
2018-11-27T11:29:27.081Z,85
2018-11-27T11:30:29.411Z,85
2018-11-27T11:31:31.429Z,86
2018-11-27T11:32:33.501Z,87
2018-11-27T11:33:35.531Z,86
2018-11-27T11:34:37.554Z,86
2018-11-27T11:35:39.591Z,86
2018-11-27T11:36:41.620Z,86
2018-11-27T11:37:43.659Z,86
2018-11-27T11:38:45.686Z,87
2018-11-27T11:39:48.023Z,86
2018-11-27T11:40:50.094Z,86
2018-11-27T11:41:52.123Z,86
2018-11-27T11:42:54.168Z,86
2018-11-27T11:43:56.204Z,85
2018-11-27T11:44:58.239Z,86
2018-11-27T11:46:00.316Z,86
2018-11-27T11:47:02.342Z,86
2018-11-27T11:48:04.369Z,87
2018-11-27T11:49:06.408Z,87
2018-11-27T11:50:08.427Z,88
2018-11-27T11:51:10.468Z,88
2018-11-27T11:52:12.774Z,88
2018-11-27T11:53:14.801Z,87
2018-11-27T11:54:16.826Z,87
2018-11-27T11:55:18.872Z,87
2018-11-27T11:56:20.889Z,87
2018-11-27T11:57:22.932Z,86
2018-11-27T11:58:24.966Z,86
2018-11-27T11:59:29.656Z,86
2018-11-27T12:00:31.702Z,85
2018-11-27T12:01:34.021Z,85
2018-11-27T12:02:36.053Z,85
2018-11-27T12:03:38.064Z,85
2018-11-27T12:04:40.106Z,85
2018-11-27T12:05:42.130Z,84
2018-11-27T12:06:44.157Z,84
2018-11-27T12:07:46.197Z,84
2018-11-27T12:08:48.225Z,84
2018-11-27T12:09:50.408Z,84
2018-11-27T12:10:52.451Z,84
2018-11-27T12:11:54.768Z,84
2018-11-27T12:12:56.794Z,84
2018-11-27T12:13:59.236Z,84
2018-11-27T12:15:01.264Z,84
2018-11-27T12:16:03.294Z,84
2018-11-27T12:17:05.330Z,85
2018-11-27T12:18:07.361Z,85
2018-11-27T12:19:09.396Z,86
2018-11-27T12:20:11.719Z,86
2018-11-27T12:21:13.745Z,86
2018-11-27T12:22:15.775Z,86
2018-11-27T12:23:17.808Z,86
2018-11-27T12:24:19.829Z,87
2018-11-27T12:25:25.171Z,87
2018-11-27T12:26:27.209Z,87
2018-11-27T12:27:29.239Z,87
2018-11-27T12:28:31.554Z,87
2018-11-27T12:29:33.570Z,87
2018-11-27T12:30:35.989Z,87
2018-11-27T12:31:38.028Z,87
2018-11-27T12:32:40.052Z,87
2018-11-27T12:33:42.096Z,88
2018-11-27T12:34:44.125Z,88
2018-11-27T12:35:46.153Z,88
2018-11-27T12:36:48.447Z,88
2018-11-27T12:37:50.485Z,87
2018-11-27T12:38:52.508Z,87
2018-11-27T12:39:54.536Z,87
2018-11-27T12:40:56.571Z,87
2018-11-27T12:41:58.888Z,87
2018-11-27T12:43:00.921Z,87
2018-11-27T12:44:03.336Z,87
2018-11-27T12:45:05.373Z,87
2018-11-27T12:46:07.390Z,87
2018-11-27T12:47:09.851Z,87
2018-11-27T12:48:12.345Z,87
2018-11-27T12:49:14.655Z,86
2018-11-27T12:50:16.694Z,86
2018-11-27T12:51:19.874Z,86
2018-11-27T12:52:22.189Z,87
2018-11-27T12:53:24.234Z,87
2018-11-27T12:54:26.265Z,87
2018-11-27T12:55:28.284Z,87
2018-11-27T12:56:30.711Z,86
2018-11-27T12:57:32.731Z,86
2018-11-27T12:58:34.768Z,86
2018-11-27T12:59:36.800Z,86
2018-11-27T13:00:38.840Z,87
2018-11-27T13:01:40.860Z,87
2018-11-27T13:02:42.927Z,87
2018-11-27T13:03:45.242Z,86
2018-11-27T13:04:47.269Z,86
2018-11-27T13:05:49.292Z,85
2018-11-27T13:06:51.327Z,86
2018-11-27T13:07:53.407Z,86
2018-11-27T13:08:55.436Z,86
2018-11-27T13:09:57.457Z,86
2018-11-27T13:10:59.504Z,86
2018-11-27T13:12:01.530Z,86
2018-11-27T13:13:03.553Z,86
2018-11-27T13:14:05.596Z,85
2018-11-27T13:15:07.616Z,86
2018-11-27T13:16:09.648Z,86
2018-11-27T13:17:11.683Z,85
2018-11-27T13:18:13.720Z,86
2018-11-27T13:19:15.739Z,85
2018-11-27T13:20:17.780Z,86
2018-11-27T13:21:19.811Z,86
2018-11-27T13:22:21.838Z,86
2018-11-27T13:23:23.875Z,86
2018-11-27T13:24:25.912Z,86
2018-11-27T13:25:27.985Z,87
2018-11-27T13:26:30.037Z,87
2018-11-27T13:27:32.059Z,87
2018-11-27T13:28:34.080Z,88
2018-11-27T13:29:36.108Z,87
2018-11-27T13:30:39.438Z,88
2018-11-27T13:31:41.477Z,88
2018-11-27T13:32:43.519Z,88
2018-11-27T13:33:45.562Z,88
2018-11-27T13:34:53.383Z,88
2018-11-27T13:35:55.431Z,88
2018-11-27T13:36:57.458Z,88
2018-11-27T13:37:59.487Z,88
2018-11-27T13:39:01.522Z,87
2018-11-27T13:40:03.544Z,87
2018-11-27T13:41:05.576Z,87
2018-11-27T13:42:07.907Z,87
2018-11-27T13:43:10.237Z,87
2018-11-27T13:44:12.650Z,86
2018-11-27T13:45:14.679Z,86
2018-11-27T13:46:16.712Z,86
2018-11-27T13:47:18.752Z,85
2018-11-27T13:48:20.774Z,85
2018-11-27T13:49:23.093Z,85
2018-11-27T13:50:25.127Z,85
2018-11-27T13:51:27.315Z,84
2018-11-27T13:52:29.732Z,84
2018-11-27T13:53:31.776Z,84
2018-11-27T13:54:33.884Z,84
2018-11-27T13:55:35.920Z,84
2018-11-27T13:56:37.954Z,84
2018-11-27T13:57:40.038Z,83
2018-11-27T13:58:42.729Z,84
2018-11-27T13:59:45.106Z,83
2018-11-27T14:00:47.174Z,83
2018-11-27T14:01:49.524Z,83
2018-11-27T14:02:51.583Z,83
2018-11-27T14:03:54.466Z,82
2018-11-27T14:04:56.603Z,83
2018-11-27T14:05:58.937Z,83
2018-11-27T14:07:00.990Z,83
2018-11-27T14:08:03.013Z,83
2018-11-27T14:09:05.093Z,82
2018-11-27T14:10:07.408Z,82
2018-11-27T14:11:09.449Z,82
2018-11-27T14:12:11.883Z,83
2018-11-27T14:13:14.188Z,83
2018-11-27T14:14:16.317Z,83
2018-11-27T14:15:18.380Z,83
2018-11-27T14:16:20.437Z,83
2018-11-27T14:17:22.479Z,83
2018-11-27T14:18:25.086Z,84
2018-11-27T14:19:27.139Z,84
2018-11-27T14:20:29.188Z,84
2018-11-27T14:21:31.250Z,85
2018-11-27T14:22:33.306Z,85
2018-11-27T14:23:35.353Z,85
2018-11-27T14:24:37.386Z,86
2018-11-27T14:25:39.461Z,87
2018-11-27T14:26:41.480Z,89